Time;durP1;ratioP1;P1;durP2;ratioP2;P2;SDS_P1;SDS_P2;PMS_P1;PMS_P2;Temp;Humidity;BMP_temperature;BMP_pressure;BME280_temperature;BME280_humidity;BME280_pressure;Samples;Min_cycle;Max_cycle;Signal;HPM_P1;HPM_P2
2022/01/29 00:01:28;;;;;;;29.85;15.70;;;;;;;4.13;77.82;100589.22;2619416;47;20023;-65
2022/01/29 00:03:58;;;;;;;26.60;15.23;;;;;;;4.15;77.65;100584.69;2622845;39;20445;-67
2022/01/29 00:06:31;;;;;;;27.50;16.17;;;;;;;4.12;77.24;100577.06;2621405;54;20031;-68
2022/01/29 00:09:00;;;;;;;28.23;16.02;;;;;;;4.06;77.53;100577.50;2619783;54;20062;-68
2022/01/29 00:11:35;;;;;;;26.38;15.27;;;;;;;4.06;77.41;100576.66;2620754;54;20034;-68
2022/01/29 00:14:05;;;;;;;21.23;14.63;;;;;;;4.07;77.46;100570.47;2620893;54;20074;-66
2022/01/29 00:16:35;;;;;;;24.75;14.38;;;;;;;4.01;77.48;100553.44;2621505;54;20069;-66
2022/01/29 00:19:06;;;;;;;25.83;14.38;;;;;;;4.06;77.71;100555.72;2620691;54;20031;-67
2022/01/29 00:21:38;;;;;;;25.25;14.98;;;;;;;4.05;77.56;100547.03;2620528;54;20039;-65
2022/01/29 00:24:09;;;;;;;27.55;14.82;;;;;;;4.05;77.48;100533.13;2621631;54;20027;-65
2022/01/29 00:26:38;;;;;;;27.50;14.85;;;;;;;4.06;77.44;100542.63;2621364;54;20031;-65
2022/01/29 00:29:16;;;;;;;26.20;15.68;;;;;;;4.04;77.56;100544.50;2619779;51;20041;-64
2022/01/29 00:31:46;;;;;;;28.05;14.88;;;;;;;4.03;77.42;100527.97;2620368;54;20037;-65
2022/01/29 00:34:15;;;;;;;27.27;15.68;;;;;;;4.01;77.62;100529.06;2618958;54;20175;-67
2022/01/29 00:36:48;;;;;;;24.55;14.05;;;;;;;4.06;77.65;100517.31;2618341;54;20058;-65
2022/01/29 00:39:17;;;;;;;26.17;14.02;;;;;;;4.08;77.32;100515.44;2619037;54;20031;-67
2022/01/29 00:41:47;;;;;;;26.70;14.98;;;;;;;4.10;77.18;100510.06;2620012;54;20027;-64
2022/01/29 00:44:36;;;;;;;25.63;14.68;;;;;;;4.07;77.38;100505.03;2623466;54;20033;-65
2022/01/29 00:47:06;;;;;;;24.25;14.02;;;;;;;3.98;77.25;100494.28;2619450;54;20038;-65
2022/01/29 00:49:36;;;;;;;27.83;14.20;;;;;;;3.91;77.47;100492.22;2619094;54;20069;-65
2022/01/29 00:52:09;;;;;;;24.98;14.60;;;;;;;3.91;77.83;100492.22;2619200;54;20038;-65
2022/01/29 00:54:46;;;;;;;28.92;13.73;;;;;;;3.87;77.29;100485.53;2619166;54;20039;-65
2022/01/29 00:57:16;;;;;;;26.52;13.95;;;;;;;3.80;77.60;100474.69;2619206;39;20540;-66
2022/01/29 00:59:46;;;;;;;23.92;13.60;;;;;;;3.79;77.67;100469.53;2618866;54;20027;-66
2022/01/29 01:02:16;;;;;;;21.98;12.45;;;;;;;3.83;77.72;100473.59;2617858;54;20037;-66
2022/01/29 01:04:46;;;;;;;22.95;12.63;;;;;;;3.80;77.91;100474.69;2618740;54;20163;-65
2022/01/29 01:07:18;;;;;;;21.60;12.95;;;;;;;3.78;77.69;100473.94;2618156;54;20055;-65
2022/01/29 01:09:48;;;;;;;25.55;14.30;;;;;;;3.77;77.82;100469.66;2618417;54;20577;-67
2022/01/29 01:12:17;;;;;;;24.95;13.63;;;;;;;3.80;78.30;100474.69;2618148;54;20041;-66
2022/01/29 01:14:47;;;;;;;20.77;12.65;;;;;;;3.83;78.05;100473.59;2618608;54;20054;-66
2022/01/29 01:17:18;;;;;;;22.88;13.60;;;;;;;3.86;77.85;100476.84;2617674;47;20125;-66
2022/01/29 01:19:48;;;;;;;25.25;14.93;;;;;;;3.81;77.65;100471.09;2618429;54;20031;-66
2022/01/29 01:22:20;;;;;;;20.92;13.10;;;;;;;3.83;77.48;100471.00;2619204;39;20415;-65
2022/01/29 01:24:50;;;;;;;23.65;13.77;;;;;;;3.80;77.77;100468.63;2619293;39;20418;-65
2022/01/29 01:27:20;;;;;;;21.35;12.65;;;;;;;3.81;77.58;100470.28;2618683;54;20034;-65
2022/01/29 01:29:50;;;;;;;23.80;13.57;;;;;;;3.86;77.64;100473.41;2618289;54;20033;-66
2022/01/29 01:32:19;;;;;;;24.15;13.63;;;;;;;3.86;77.93;100473.41;2618597;54;20584;-67
2022/01/29 01:34:52;;;;;;;22.05;13.85;;;;;;;3.88;77.39;100461.88;2618577;54;20035;-67
2022/01/29 01:37:34;;;;;;;24.10;13.40;;;;;;;3.88;77.78;100469.75;2617928;54;20625;-66
2022/01/29 01:40:04;;;;;;;27.67;15.05;;;;;;;3.85;77.62;100464.72;2618303;54;20031;-65
2022/01/29 01:42:33;;;;;;;24.02;14.93;;;;;;;3.78;77.43;100470.47;2618022;47;20038;-66
2022/01/29 01:45:07;;;;;;;27.02;14.48;;;;;;;3.77;77.62;100469.66;2622046;54;20030;-66
2022/01/29 01:47:37;;;;;;;25.45;13.23;;;;;;;3.72;77.54;100467.38;2622410;47;20034;-66
2022/01/29 01:50:08;;;;;;;29.45;15.13;;;;;;;3.69;77.50;100470.19;2622741;54;20023;-66
2022/01/29 01:52:40;;;;;;;30.10;15.43;;;;;;;3.64;77.57;100472.31;2622551;54;20506;-66
2022/01/29 01:55:11;;;;;;;23.98;12.55;;;;;;;3.62;77.66;100468.09;2622572;54;20046;-66
2022/01/29 01:57:40;;;;;;;24.83;14.20;;;;;;;3.61;77.73;100466.44;2622411;54;20039;-66
2022/01/29 02:00:12;;;;;;;27.70;14.52;;;;;;;3.66;78.00;100459.94;2621936;54;20570;-65
2022/01/29 02:02:42;;;;;;;23.45;13.32;;;;;;;3.68;78.02;100449.38;2622229;54;20085;-66
2022/01/29 02:05:12;;;;;;;28.25;14.07;;;;;;;3.69;77.78;100448.44;2621011;54;20082;-66
2022/01/29 02:07:47;;;;;;;29.20;13.45;;;;;;;3.71;77.66;100439.53;2618385;54;20046;-65
2022/01/29 02:10:18;;;;;;;23.27;13.43;;;;;;;3.75;77.70;100434.91;2618785;54;20559;-66
2022/01/29 02:12:52;;;;;;;25.75;15.00;;;;;;;3.81;77.53;100431.03;2618593;54;20530;-67
2022/01/29 02:15:24;;;;;;;23.67;14.00;;;;;;;3.78;77.55;100429.47;2618031;54;20064;-66
2022/01/29 02:17:54;;;;;;;26.95;14.98;;;;;;;3.73;77.65;100423.72;2618119;39;20125;-67
2022/01/29 02:20:26;;;;;;;26.35;14.60;;;;;;;3.76;77.82;100409.63;2618940;39;20407;-66
2022/01/29 02:23:00;;;;;;;31.90;16.10;;;;;;;3.71;77.29;100412.53;2618745;54;20033;-67
2022/01/29 02:25:31;;;;;;;25.60;14.95;;;;;;;3.72;77.36;100409.81;2617542;54;20078;-66
2022/01/29 02:28:02;;;;;;;25.75;14.05;;;;;;;3.70;77.57;100405.63;2618114;54;20050;-67
2022/01/29 02:30:34;;;;;;;29.33;16.05;;;;;;;3.69;77.41;100398.75;2619300;39;20379;-67
2022/01/29 02:33:08;;;;;;;26.27;15.68;;;;;;;3.64;77.71;100386.00;2618029;54;20034;-67
2022/01/29 02:35:40;;;;;;;29.23;15.27;;;;;;;3.59;77.62;100388.09;2617549;54;20023;-65
2022/01/29 02:38:13;;;;;;;28.65;16.02;;;;;;;3.57;77.70;100384.75;2619287;54;20082;-67
2022/01/29 02:40:46;;;;;;;27.75;16.30;;;;;;;3.60;77.78;100395.00;2621974;54;20038;-68
2022/01/29 02:43:19;;;;;;;26.80;13.73;;;;;;;3.63;78.00;100402.63;2621345;54;20534;-66
2022/01/29 02:45:51;;;;;;;28.08;15.15;;;;;;;3.62;77.82;100400.13;2619621;47;20026;-65
2022/01/29 02:48:21;;;;;;;25.02;14.27;;;;;;;3.61;77.54;100385.38;2619892;54;20701;-66
2022/01/29 02:50:51;;;;;;;27.67;13.48;;;;;;;3.56;77.83;100384.88;2620127;54;20598;-67
2022/01/29 02:53:24;;;;;;;22.98;13.65;;;;;;;3.49;78.08;100389.69;2619891;54;20038;-68
2022/01/29 02:55:53;;;;;;;25.70;14.38;;;;;;;3.42;78.23;100373.59;2619658;54;20038;-67
2022/01/29 02:58:23;;;;;;;23.83;14.25;;;;;;;3.40;78.64;100375.50;2619793;54;20042;-64
2022/01/29 03:00:53;;;;;;;22.75;13.55;;;;;;;3.48;78.11;100367.13;2619104;54;20049;-65
2022/01/29 03:03:24;;;;;;;27.80;14.23;;;;;;;3.48;78.16;100361.88;2619948;54;20030;-65
2022/01/29 03:05:54;;;;;;;26.15;13.63;;;;;;;3.45;78.36;100352.47;2619615;54;20034;-65
2022/01/29 03:08:29;;;;;;;26.25;13.48;;;;;;;3.48;78.26;100347.03;2619775;54;20042;-65
2022/01/29 03:10:59;;;;;;;23.58;13.27;;;;;;;3.50;78.07;100349.53;2620040;54;20023;-63
2022/01/29 03:13:29;;;;;;;27.05;14.07;;;;;;;3.44;78.51;100340.34;2619731;54;20049;-64
2022/01/29 03:15:58;;;;;;;23.30;13.35;;;;;;;3.48;78.25;100333.94;2620125;54;20082;-65
2022/01/29 03:18:28;;;;;;;24.23;13.77;;;;;;;3.43;78.31;100333.44;2619731;54;20038;-66
2022/01/29 03:20:58;;;;;;;24.23;14.18;;;;;;;3.43;78.77;100325.63;2621010;54;20046;-68
2022/01/29 03:23:30;;;;;;;25.20;12.98;;;;;;;3.43;78.95;100319.56;2619810;54;20031;-67
2022/01/29 03:26:00;;;;;;;24.08;12.60;;;;;;;3.43;78.95;100315.16;2619174;54;20031;-66
2022/01/29 03:28:30;;;;;;;20.90;11.70;;;;;;;3.44;78.79;100310.75;2619806;54;20031;-66
2022/01/29 03:30:59;;;;;;;21.83;11.85;;;;;;;3.40;78.86;100309.31;2619565;54;20031;-67
2022/01/29 03:33:29;;;;;;;24.25;12.60;;;;;;;3.35;78.89;100307.03;2620436;39;20422;-67
2022/01/29 03:35:59;;;;;;;25.98;12.60;;;;;;;3.33;78.68;100300.22;2619262;47;20557;-67
2022/01/29 03:38:31;;;;;;;27.08;13.00;;;;;;;3.35;78.82;100303.56;2619635;54;20030;-66
2022/01/29 03:41:01;;;;;;;23.55;11.77;;;;;;;3.35;78.84;100291.34;2620321;46;20050;-66
2022/01/29 03:43:35;;;;;;;23.73;12.82;;;;;;;3.40;79.04;100277.94;2619392;54;20538;-66
2022/01/29 03:46:04;;;;;;;21.48;12.00;;;;;;;3.37;78.99;100268.53;2618791;54;20150;-68
2022/01/29 03:48:34;;;;;;;24.40;12.63;;;;;;;3.36;78.97;100274.72;2619552;54;20088;-67
2022/01/29 03:51:04;;;;;;;24.05;11.95;;;;;;;3.31;78.99;100261.13;2619547;54;20530;-67
2022/01/29 03:53:36;;;;;;;21.85;11.68;;;;;;;3.34;79.18;100273.13;2618269;54;20070;-67
2022/01/29 03:56:07;;;;;;;26.35;12.25;;;;;;;3.33;79.06;100274.09;2617954;54;20034;-68
2022/01/29 03:58:36;;;;;;;19.95;10.93;;;;;;;3.31;79.19;100278.59;2618984;54;20026;-68
2022/01/29 04:01:06;;;;;;;20.50;11.82;;;;;;;3.33;79.19;100276.69;2618864;54;20151;-68
2022/01/29 04:03:36;;;;;;;22.50;12.07;;;;;;;3.41;79.04;100287.44;2619366;54;20531;-67
2022/01/29 04:06:06;;;;;;;19.05;9.85;;;;;;;3.36;78.64;100279.94;2619050;54;20558;-66
2022/01/29 04:08:41;;;;;;;20.20;10.70;;;;;;;3.32;78.69;100286.31;2618512;54;20066;-66
2022/01/29 04:11:12;;;;;;;17.35;10.57;;;;;;;3.33;78.96;100280.16;2619264;54;20542;-67
2022/01/29 04:13:45;;;;;;;18.30;10.40;;;;;;;3.34;78.69;100284.41;2618792;54;20034;-67
2022/01/29 04:16:16;;;;;;;22.00;11.02;;;;;;;3.37;78.46;100276.38;2618419;54;20034;-68
2022/01/29 04:18:46;;;;;;;17.10;10.63;;;;;;;3.34;78.73;100292.25;2618846;54;20042;-66
2022/01/29 04:21:16;;;;;;;16.83;10.00;;;;;;;3.37;78.94;100294.66;2618827;54;20039;-66
2022/01/29 04:23:48;;;;;;;19.00;10.45;;;;;;;3.43;78.51;100296.03;2618670;54;20034;-65
2022/01/29 04:26:18;;;;;;;19.08;10.30;;;;;;;3.39;78.88;100305.03;2618393;54;20596;-65
2022/01/29 04:28:48;;;;;;;17.77;10.48;;;;;;;3.44;78.76;100310.75;2618574;54;20098;-66
2022/01/29 04:31:20;;;;;;;18.15;10.18;;;;;;;3.54;78.36;100322.22;2619157;54;20031;-67
2022/01/29 04:33:50;;;;;;;18.65;10.50;;;;;;;3.50;78.51;100309.47;2619892;54;20030;-67
2022/01/29 04:36:19;;;;;;;17.38;9.88;;;;;;;3.53;78.34;100296.19;2622759;54;20080;-66
2022/01/29 04:38:51;;;;;;;19.45;10.35;;;;;;;3.57;78.55;100297.63;2623514;54;20078;-66
2022/01/29 04:41:22;;;;;;;19.50;10.60;;;;;;;3.61;78.28;100284.22;2624006;54;20034;-66
2022/01/29 04:43:51;;;;;;;17.80;9.88;;;;;;;3.61;78.09;100267.69;2624152;54;20034;-64
2022/01/29 04:46:21;;;;;;;18.45;9.88;;;;;;;3.63;77.66;100268.41;2623811;54;20103;-65
2022/01/29 04:48:53;;;;;;;16.35;9.55;;;;;;;3.60;77.75;100272.09;2623745;54;20058;-67
2022/01/29 04:51:23;;;;;;;15.18;9.77;;;;;;;3.54;78.04;100279.53;2628826;39;20442;-68
2022/01/29 04:53:55;;;;;;;17.27;9.95;;;;;;;3.49;77.94;100269.41;2619876;54;20054;-67
2022/01/29 04:56:25;;;;;;;17.95;10.15;;;;;;;3.53;78.37;100264.81;2619004;54;20093;-66
2022/01/29 04:58:54;;;;;;;16.08;9.77;;;;;;;3.52;78.35;100281.44;2619115;54;20018;-65
2022/01/29 05:01:24;;;;;;;19.23;10.07;;;;;;;3.52;78.18;100282.28;2619024;54;20060;-64
2022/01/29 05:03:54;;;;;;;17.13;10.30;;;;;;;3.46;77.85;100278.31;2618135;54;20026;-65
2022/01/29 05:06:24;;;;;;;17.83;10.80;;;;;;;3.49;78.47;100272.03;2618630;54;20034;-63
2022/01/29 05:08:56;;;;;;;18.75;10.00;;;;;;;3.54;78.20;100267.28;2618680;54;20042;-65
2022/01/29 05:11:25;;;;;;;17.92;10.52;;;;;;;3.54;77.85;100258.63;2617998;54;20058;-65
2022/01/29 05:13:55;;;;;;;17.50;10.38;;;;;;;3.53;78.12;100259.56;2618439;47;20035;-67
2022/01/29 05:16:53;;;;;;;19.27;11.20;;;;;;;3.51;78.37;100253.59;2623789;54;20035;-72
2022/01/29 05:27:32;;;;;;;18.98;11.30;;;;;;;3.30;78.71;100256.00;2625792;54;20038;-73
2022/01/29 05:30:02;;;;;;;22.38;10.93;;;;;;;3.28;78.96;100255.28;2625383;46;20034;-75
2022/01/29 05:32:31;;;;;;;20.17;11.65;;;;;;;3.31;79.43;100268.16;2623156;54;20071;-73
2022/01/29 05:35:01;;;;;;;17.02;10.55;;;;;;;3.31;79.73;100273.38;2624419;54;20026;-72
2022/01/29 05:37:42;;;;;;;21.67;11.63;;;;;;;3.27;79.54;100278.00;2627120;47;20027;-73
2022/01/29 05:40:14;;;;;;;20.13;11.20;;;;;;;3.19;79.83;100277.69;2627454;47;20045;-74
2022/01/29 05:42:44;;;;;;;22.88;12.10;;;;;;;3.20;79.97;100272.34;2622225;54;20045;-72
2022/01/29 05:45:14;;;;;;;20.52;11.13;;;;;;;3.26;80.19;100278.06;2620821;54;20079;-71
2022/01/29 05:47:45;;;;;;;19.27;12.25;;;;;;;3.24;80.28;100275.59;2620751;54;20074;-72
2022/01/29 05:50:14;;;;;;;20.70;11.73;;;;;;;3.26;80.05;100272.84;2622946;54;20030;-72
2022/01/29 05:52:44;;;;;;;18.65;11.38;;;;;;;3.31;80.53;100273.38;2625239;54;20088;-72
2022/01/29 05:55:16;;;;;;;18.85;11.63;;;;;;;3.27;80.46;100280.59;2624305;47;20047;-73
2022/01/29 05:57:48;;;;;;;20.05;11.48;;;;;;;3.21;80.53;100279.25;2626388;54;20042;-73
2022/01/29 06:00:18;;;;;;;19.08;11.90;;;;;;;3.17;80.63;100288.25;2626258;47;20030;-72
2022/01/29 06:02:48;;;;;;;23.50;12.18;;;;;;;3.14;81.14;100285.00;2626698;54;20046;-72
2022/01/29 06:05:18;;;;;;;21.85;11.65;;;;;;;3.15;80.84;100276.25;2624540;47;20066;-71
2022/01/29 06:07:47;;;;;;;21.02;12.30;;;;;;;3.12;80.76;100282.50;2620977;54;20035;-72
2022/01/29 06:10:19;;;;;;;22.30;12.35;;;;;;;3.12;80.95;100282.50;2621794;54;20035;-70
2022/01/29 06:12:59;;;;;;;21.00;12.18;;;;;;;3.14;81.35;100287.63;2624024;54;20034;-72
2022/01/29 06:15:30;;;;;;;19.38;11.30;;;;;;;3.14;81.29;100285.00;2622394;47;20038;-72
2022/01/29 06:17:59;;;;;;;18.65;11.32;;;;;;;3.15;81.34;100282.31;2619570;47;20147;-72
2022/01/29 06:20:29;;;;;;;20.90;11.35;;;;;;;3.14;81.19;100274.56;2621726;39;20572;-71
2022/01/29 06:22:59;;;;;;;18.52;10.25;;;;;;;3.13;80.81;100265.88;2623127;39;20434;-72
2022/01/29 06:25:32;;;;;;;18.30;9.73;;;;;;;3.12;81.07;100268.63;2622115;39;20501;-70
2022/01/29 06:28:02;;;;;;;17.05;9.38;;;;;;;3.11;80.72;100261.72;2621256;54;20031;-72
2022/01/29 06:30:33;;;;;;;16.50;9.95;;;;;;;3.11;80.61;100261.72;2623618;47;20034;-70
2022/01/29 06:33:09;;;;;;;14.35;9.63;;;;;;;3.05;80.94;100260.38;2623554;54;20054;-70
2022/01/29 06:35:40;;;;;;;16.55;9.38;;;;;;;3.09;80.78;100261.00;2620689;46;20082;-71
2022/01/29 06:38:11;;;;;;;15.88;9.60;;;;;;;3.09;80.74;100259.22;2621787;54;20050;-71
2022/01/29 06:40:44;;;;;;;18.30;10.48;;;;;;;3.09;80.96;100264.44;2622732;54;20038;-71
2022/01/29 06:43:14;;;;;;;18.52;10.20;;;;;;;3.11;81.00;100261.72;2622382;54;20039;-72
2022/01/29 06:45:45;;;;;;;14.90;9.35;;;;;;;3.12;80.58;100258.16;2623111;54;20033;-71
2022/01/29 06:48:15;;;;;;;16.30;9.77;;;;;;;3.14;80.85;100256.25;2623685;47;20030;-72
2022/01/29 06:50:45;;;;;;;16.33;9.55;;;;;;;3.17;80.81;100261.28;2623679;54;20027;-71
2022/01/29 06:53:15;;;;;;;18.77;10.57;;;;;;;3.19;80.30;100252.41;2623568;47;20041;-71
2022/01/29 06:55:47;;;;;;;14.82;8.10;;;;;;;3.12;80.43;100245.94;2623180;54;20035;-72
2022/01/29 06:58:16;;;;;;;16.27;10.75;;;;;;;3.10;80.22;100263.50;2623323;54;20035;-72
2022/01/29 07:01:06;;;;;;;18.48;11.23;;;;;;;3.09;80.45;100261.00;2623887;54;20078;-72
2022/01/29 07:03:36;;;;;;;16.83;9.50;;;;;;;3.17;80.59;100263.88;2624009;54;20589;-72
2022/01/29 07:06:06;;;;;;;14.32;9.60;;;;;;;3.21;80.49;100265.34;2624853;54;21123;-72
2022/01/29 07:08:38;;;;;;;14.73;8.30;;;;;;;3.15;80.07;100264.00;2622222;54;20077;-72
2022/01/29 07:11:10;;;;;;;14.68;8.05;;;;;;;3.19;79.72;100267.25;2618681;54;20033;-71
2022/01/29 07:13:41;;;;;;;11.70;7.60;;;;;;;3.11;80.12;100257.34;2618688;54;20035;-71
2022/01/29 07:16:10;;;;;;;16.02;9.50;;;;;;;3.11;80.29;100259.94;2617636;54;20046;-73
2022/01/29 07:18:40;;;;;;;13.55;7.65;;;;;;;3.13;80.48;100265.06;2618213;54;20034;-71
2022/01/29 07:21:10;;;;;;;9.80;7.20;;;;;;;3.11;80.29;100267.78;2618456;54;20078;-72
2022/01/29 07:23:40;;;;;;;15.20;9.75;;;;;;;3.11;80.12;100265.19;2618940;54;20034;-72
2022/01/29 07:26:12;;;;;;;15.63;9.20;;;;;;;3.18;80.48;100266.41;2619206;47;20038;-72
2022/01/29 07:28:42;;;;;;;12.02;7.30;;;;;;;3.17;80.88;100261.28;2619065;54;20038;-72
2022/01/29 07:31:11;;;;;;;10.57;7.03;;;;;;;3.16;80.81;100260.44;2619278;54;20042;-74
2022/01/29 07:33:41;;;;;;;13.40;7.93;;;;;;;3.14;80.65;100253.66;2619081;47;20046;-72
2022/01/29 07:36:11;;;;;;;21.67;11.20;;;;;;;3.21;80.56;100257.50;2619740;39;20470;-73
2022/01/29 07:38:40;;;;;;;20.45;10.25;;;;;;;3.26;80.42;100254.56;2618735;54;20095;-74
2022/01/29 07:41:12;;;;;;;23.88;12.18;;;;;;;3.27;80.35;100251.84;2618852;47;20057;-72
2022/01/29 07:43:43;;;;;;;9.90;6.90;;;;;;;3.25;79.94;100252.91;2620169;39;20445;-72
2022/01/29 07:46:12;;;;;;;11.57;7.22;;;;;;;3.24;80.20;100244.22;2618263;47;20030;-73
2022/01/29 07:48:42;;;;;;;10.90;7.03;;;;;;;3.26;80.23;100249.31;2619341;47;20107;-72
2022/01/29 07:51:12;;;;;;;10.13;7.00;;;;;;;3.23;79.94;100256.47;2619692;54;20039;-70
2022/01/29 07:53:42;;;;;;;10.65;7.05;;;;;;;3.19;80.14;100247.16;2619183;54;20038;-73
2022/01/29 07:56:14;;;;;;;11.20;7.35;;;;;;;3.23;80.03;100239.94;2619540;39;20441;-73
2022/01/29 07:58:44;;;;;;;9.23;6.72;;;;;;;3.26;80.51;100242.31;2619246;47;20038;-73
2022/01/29 08:01:15;;;;;;;10.35;6.78;;;;;;;3.27;79.89;100232.72;2619184;39;20434;-73
2022/01/29 08:03:48;;;;;;;9.07;6.13;;;;;;;3.31;80.20;100239.41;2617899;46;20062;-71
2022/01/29 08:06:19;;;;;;;7.72;5.32;;;;;;;3.34;79.84;100232.13;2618785;54;20030;-71
2022/01/29 08:08:48;;;;;;;8.02;5.72;;;;;;;3.36;79.62;100218.97;2619128;54;20039;-72
2022/01/29 08:11:21;;;;;;;8.07;5.57;;;;;;;3.30;79.48;100219.41;2619169;54;20027;-72
2022/01/29 08:13:51;;;;;;;8.18;5.90;;;;;;;3.31;79.64;100227.16;2619842;54;20030;-72
2022/01/29 08:16:21;;;;;;;7.93;5.63;;;;;;;3.34;79.46;100224.28;2625530;54;20034;-72
2022/01/29 08:18:51;;;;;;;8.90;5.80;;;;;;;3.37;79.60;100213.63;2624478;47;20034;-72
2022/01/29 08:21:21;;;;;;;7.05;4.60;;;;;;;3.33;79.72;100213.97;2624669;47;20274;-72
2022/01/29 08:23:50;;;;;;;7.57;5.00;;;;;;;3.42;79.68;100208.88;2624908;54;20030;-71
2022/01/29 08:26:22;;;;;;;7.65;5.38;;;;;;;3.54;79.79;100214.16;2625051;54;20035;-71
2022/01/29 08:28:52;;;;;;;6.95;4.85;;;;;;;3.60;79.57;100209.34;2625213;54;20026;-72
2022/01/29 08:31:22;;;;;;;8.20;4.72;;;;;;;3.57;79.31;100209.56;2625327;54;20031;-71
2022/01/29 08:33:51;;;;;;;6.60;5.07;;;;;;;3.58;79.32;100213.81;2624869;54;20044;-71
2022/01/29 08:36:21;;;;;;;6.75;4.50;;;;;;;3.55;79.30;100210.59;2624578;47;20035;-72
2022/01/29 08:38:50;;;;;;;7.07;4.63;;;;;;;3.54;80.01;100220.22;2624543;54;20030;-71
2022/01/29 08:41:23;;;;;;;7.32;4.85;;;;;;;3.57;79.65;100213.94;2623971;54;20602;-71
2022/01/29 08:43:52;;;;;;;6.28;4.93;;;;;;;3.54;79.64;100198.47;2624887;54;20037;-71
2022/01/29 08:46:22;;;;;;;8.98;5.80;;;;;;;3.54;79.66;100206.31;2624831;54;20086;-72
2022/01/29 08:48:52;;;;;;;6.30;4.63;;;;;;;3.52;80.01;100203.00;2624761;54;20035;-70
2022/01/29 08:51:22;;;;;;;6.32;4.28;;;;;;;3.57;79.97;100193.03;2619931;54;20046;-71
2022/01/29 08:53:52;;;;;;;5.90;4.15;;;;;;;3.53;79.63;100195.03;2618764;47;20031;-71
2022/01/29 08:56:24;;;;;;;6.25;4.30;;;;;;;3.51;79.51;100196.09;2619648;39;20734;-71
2022/01/29 08:58:53;;;;;;;5.68;3.90;;;;;;;3.37;79.63;100192.72;2619468;54;20038;-72
2022/01/29 09:01:23;;;;;;;5.97;3.70;;;;;;;3.41;80.13;100207.22;2619580;39;20399;-72
2022/01/29 09:03:53;;;;;;;5.47;4.05;;;;;;;3.44;80.13;100212.25;2618723;54;20026;-72
2022/01/29 09:06:23;;;;;;;6.00;4.10;;;;;;;3.50;79.93;100200.50;2623959;47;20032;-72
2022/01/29 09:08:53;;;;;;;4.65;3.70;;;;;;;3.51;79.91;100204.78;2622275;54;20026;-72
2022/01/29 09:11:25;;;;;;;6.38;4.22;;;;;;;3.59;80.33;100204.19;2618672;47;20027;-71
2022/01/29 09:13:55;;;;;;;4.50;3.70;;;;;;;3.64;80.51;100205.53;2618771;46;20034;-72
2022/01/29 09:16:25;;;;;;;4.57;3.45;;;;;;;3.60;79.87;100204.09;2618391;47;20031;-73
2022/01/29 09:18:54;;;;;;;4.82;3.42;;;;;;;3.60;79.82;100216.34;2619002;54;20078;-72
2022/01/29 09:21:24;;;;;;;5.40;3.85;;;;;;;3.58;80.02;100208.59;2619106;39;20387;-71
2022/01/29 09:23:55;;;;;;;5.90;3.97;;;;;;;3.59;80.32;100214.66;2619747;54;20071;-71
2022/01/29 09:26:28;;;;;;;6.22;3.97;;;;;;;3.62;80.07;100207.41;2620295;31;20546;-72
2022/01/29 09:28:58;;;;;;;5.22;3.80;;;;;;;3.61;80.29;100200.53;2620104;39;20454;-73
2022/01/29 09:31:27;;;;;;;5.60;4.05;;;;;;;3.55;79.84;100198.38;2619428;54;20038;-73
2022/01/29 09:33:57;;;;;;;5.38;3.40;;;;;;;3.58;80.23;100190.28;2619630;54;20050;-71
2022/01/29 09:36:27;;;;;;;5.38;3.47;;;;;;;3.52;80.08;100188.16;2618794;54;20045;-72
2022/01/29 09:38:57;;;;;;;4.47;3.08;;;;;;;3.55;79.95;100193.16;2621745;54;20042;-71
2022/01/29 09:41:33;;;;;;;6.18;3.65;;;;;;;3.60;80.30;100190.19;2624815;54;20054;-72
2022/01/29 09:44:02;;;;;;;4.88;3.17;;;;;;;3.62;79.98;100186.50;2625481;54;20561;-71
2022/01/29 09:46:32;;;;;;;5.28;3.58;;;;;;;3.72;79.84;100184.06;2625781;54;20557;-71
2022/01/29 09:49:02;;;;;;;3.90;2.95;;;;;;;3.73;79.34;100180.47;2625529;54;20042;-71
2022/01/29 09:51:33;;;;;;;4.05;3.17;;;;;;;3.66;79.37;100184.50;2624856;54;20030;-71
2022/01/29 09:54:03;;;;;;;2.88;2.30;;;;;;;3.64;79.69;100171.53;2625119;54;20033;-72
2022/01/29 09:56:35;;;;;;;3.90;3.30;;;;;;;3.63;79.51;100176.88;2625017;54;20027;-73
2022/01/29 09:59:05;;;;;;;4.20;3.47;;;;;;;3.71;79.66;100175.38;2624441;47;20545;-73
2022/01/29 10:01:35;;;;;;;5.50;3.80;;;;;;;3.78;79.43;100177.50;2622767;54;20038;-73
2022/01/29 10:04:06;;;;;;;4.35;3.28;;;;;;;3.75;79.45;100168.09;2619143;54;20037;-73
2022/01/29 10:06:37;;;;;;;6.40;3.13;;;;;;;3.70;79.39;100163.22;2619138;54;20038;-73
2022/01/29 10:09:11;;;;;;;3.17;2.80;;;;;;;3.70;79.33;100180.72;2619552;54;20030;-73
2022/01/29 10:11:44;;;;;;;4.07;3.17;;;;;;;3.72;79.93;100174.41;2619084;54;20030;-74
2022/01/29 10:14:48;;;;;;;3.90;3.15;;;;;;;3.74;79.55;100184.75;2618276;54;20592;-72
2022/01/29 10:17:46;;;;;;;4.65;3.47;;;;;;;3.77;79.57;100175.84;2619124;54;20038;-73
2022/01/29 10:20:19;;;;;;;5.32;3.47;;;;;;;3.82;79.43;100171.94;2618961;54;20082;-73
2022/01/29 10:22:52;;;;;;;5.68;3.88;;;;;;;3.76;79.72;100177.66;2618885;54;20036;-72
2022/01/29 10:25:24;;;;;;;5.85;4.25;;;;;;;3.77;79.97;100170.63;2618689;54;20052;-72
2022/01/29 10:28:14;;;;;;;6.15;4.00;;;;;;;3.77;79.59;100171.47;2619020;54;20022;-72
2022/01/29 10:30:59;;;;;;;4.15;3.40;;;;;;;3.82;80.09;100164.09;2619127;54;20049;-72
2022/01/29 10:33:30;;;;;;;4.47;3.38;;;;;;;3.90;79.87;100163.50;2619254;54;20035;-72
2022/01/29 10:36:01;;;;;;;4.97;3.85;;;;;;;3.88;79.79;100173.28;2618920;54;20038;-71
2022/01/29 10:38:48;;;;;;;5.07;3.85;;;;;;;3.90;79.84;100160.91;2619250;39;20434;-72
2022/01/29 10:41:25;;;;;;;5.65;3.75;;;;;;;3.92;80.26;100164.25;2618740;54;20068;-71
2022/01/29 10:44:12;;;;;;;4.60;3.67;;;;;;;4.20;80.29;100160.31;2619040;54;20030;-71
2022/01/29 10:46:48;;;;;;;6.10;4.38;;;;;;;4.11;79.53;100167.09;2618566;47;20039;-72
2022/01/29 10:49:21;;;;;;;10.15;7.28;;;;;;;4.03;79.68;100160.78;2619270;54;20037;-73
2022/01/29 10:52:03;;;;;;;6.63;4.75;;;;;;;4.04;80.20;100149.34;2619367;39;20393;-70
2022/01/29 10:54:34;;;;;;;7.18;4.85;;;;;;;3.97;79.86;100152.47;2619720;39;20453;-73
2022/01/29 10:57:07;;;;;;;5.45;4.25;;;;;;;3.96;80.13;100142.97;2617941;47;20026;-72
2022/01/29 10:59:48;;;;;;;5.55;4.18;;;;;;;3.97;80.08;100142.00;2619741;54;20038;-73
2022/01/29 11:02:18;;;;;;;6.72;4.60;;;;;;;3.92;80.27;100136.28;2619074;54;20070;-71
2022/01/29 11:04:49;;;;;;;5.22;3.75;;;;;;;3.94;80.88;100137.00;2618691;53;20045;-72
2022/01/29 11:07:23;;;;;;;7.55;4.95;;;;;;;3.98;80.78;100140.22;2619446;54;20031;-73
2022/01/29 11:09:53;;;;;;;6.13;4.25;;;;;;;4.06;80.74;100129.97;2620173;39;20422;-72
2022/01/29 11:12:24;;;;;;;6.53;4.72;;;;;;;4.08;80.69;100132.47;2619554;54;20027;-72
2022/01/29 11:14:59;;;;;;;5.53;4.35;;;;;;;4.10;80.61;100141.88;2620259;54;20034;-72
2022/01/29 11:17:30;;;;;;;5.30;3.92;;;;;;;4.12;80.76;100144.38;2619244;39;20402;-66
2022/01/29 11:20:00;;;;;;;5.28;3.83;;;;;;;4.22;80.26;100122.59;2619226;54;20027;-65
2022/01/29 11:22:34;;;;;;;5.55;3.78;;;;;;;4.25;80.52;100120.72;2619101;54;20042;-64
2022/01/29 11:25:08;;;;;;;5.10;3.78;;;;;;;4.27;79.94;100119.63;2619457;54;20034;-65
2022/01/29 11:27:41;;;;;;;4.63;3.63;;;;;;;4.25;79.83;100115.50;2619280;54;20031;-66
2022/01/29 11:30:21;;;;;;;4.82;3.90;;;;;;;4.19;79.99;100098.47;2618784;54;20038;-65
2022/01/29 11:32:57;;;;;;;5.07;4.40;;;;;;;4.28;80.37;100110.81;2619332;54;20034;-65
2022/01/29 11:35:28;;;;;;;4.85;4.30;;;;;;;4.27;80.13;100101.31;2618985;54;20038;-64
2022/01/29 11:38:08;;;;;;;4.20;3.13;;;;;;;4.34;79.82;100097.25;2618908;54;20034;-64
2022/01/29 11:40:40;;;;;;;3.65;2.92;;;;;;;4.28;79.94;100097.72;2618869;47;20038;-63
2022/01/29 11:43:27;;;;;;;6.05;4.00;;;;;;;4.35;80.13;100077.16;2619476;54;20053;-63
2022/01/29 11:46:04;;;;;;;6.47;5.32;;;;;;;4.36;80.20;100078.81;2618759;47;20038;-65
2022/01/29 11:48:56;;;;;;;6.55;4.90;;;;;;;4.38;79.99;100074.28;2620175;54;20030;-64
2022/01/29 11:51:48;;;;;;;4.45;3.60;;;;;;;4.32;80.04;100072.97;2620424;54;20031;-66
2022/01/29 11:54:24;;;;;;;6.82;3.70;;;;;;;4.31;80.01;100067.88;2621327;54;20026;-66